createdAt,value
2023-01-13T00:00:24.925Z,16.00
2023-01-13T00:03:12.163Z,17.30
2023-01-13T00:05:39.777Z,16.10
2023-01-13T00:08:07.192Z,16.60
2023-01-13T00:10:35.202Z,16.10
2023-01-13T00:13:02.921Z,20.30
2023-01-13T00:15:29.987Z,15.20
2023-01-13T00:17:57.017Z,18.60
2023-01-13T00:20:24.217Z,14.70
2023-01-13T00:22:51.779Z,17.20
2023-01-13T00:25:19.056Z,17.00
2023-01-13T00:27:46.150Z,14.60
2023-01-13T00:30:15.278Z,17.50
2023-01-13T00:32:42.366Z,15.40
2023-01-13T00:35:10.764Z,17.70
2023-01-13T00:37:39.731Z,16.80
2023-01-13T00:40:08.174Z,17.40
2023-01-13T00:42:53.424Z,15.90
2023-01-13T00:45:20.848Z,17.10
2023-01-13T00:47:48.121Z,18.90
2023-01-13T00:50:15.340Z,18.30
2023-01-13T00:52:42.578Z,20.70
2023-01-13T00:55:10.901Z,17.10
2023-01-13T00:57:40.229Z,15.00
2023-01-13T01:00:08.646Z,16.40
2023-01-13T01:02:36.060Z,14.20
2023-01-13T01:05:03.396Z,22.20
2023-01-13T01:07:32.885Z,19.00
2023-01-13T01:10:00.306Z,17.80
2023-01-13T01:12:27.338Z,17.70
2023-01-13T01:14:54.877Z,20.80
2023-01-13T01:17:21.957Z,20.00
2023-01-13T01:19:48.982Z,18.00
2023-01-13T01:22:16.253Z,18.80
2023-01-13T01:24:43.311Z,18.50
2023-01-13T01:27:10.417Z,17.10
2023-01-13T01:29:37.521Z,18.30
2023-01-13T01:32:04.881Z,20.10
2023-01-13T01:34:31.943Z,19.80
2023-01-13T01:36:59.253Z,18.00
2023-01-13T01:39:26.318Z,17.30
2023-01-13T01:42:11.425Z,17.30
2023-01-13T01:45:00.105Z,19.30
2023-01-13T01:47:28.357Z,14.60
2023-01-13T01:49:56.329Z,18.60
2023-01-13T01:52:28.129Z,18.40
2023-01-13T01:55:00.379Z,15.50
2023-01-13T01:57:32.410Z,16.90
2023-01-13T02:00:01.605Z,16.60
2023-01-13T02:02:40.670Z,19.70
2023-01-13T02:05:09.178Z,16.90
2023-01-13T02:07:38.416Z,13.90
2023-01-13T02:10:10.513Z,15.50
2023-01-13T02:12:38.833Z,19.40
2023-01-13T02:15:09.714Z,17.70
2023-01-13T02:17:54.663Z,14.40
2023-01-13T02:20:51.710Z,14.40
2023-01-13T02:24:05.469Z,15.10
2023-01-13T02:27:01.382Z,13.60
2023-01-13T02:30:06.006Z,14.70
2023-01-13T02:32:41.499Z,16.60
2023-01-13T02:35:15.889Z,15.70
2023-01-13T02:37:46.005Z,15.60
2023-01-13T02:40:21.204Z,17.20
2023-01-13T02:43:13.136Z,13.70
2023-01-13T02:45:44.414Z,15.40
2023-01-13T02:48:13.900Z,17.20
2023-01-13T02:50:45.823Z,16.70
2023-01-13T02:53:17.658Z,13.90
2023-01-13T02:55:48.537Z,15.80
2023-01-13T02:58:19.722Z,15.40
2023-01-13T03:00:47.789Z,16.10
2023-01-13T03:03:14.897Z,17.00
2023-01-13T03:05:45.741Z,15.60
2023-01-13T03:08:24.256Z,16.20
2023-01-13T03:11:02.541Z,13.60
2023-01-13T03:13:48.873Z,14.40
2023-01-13T03:16:24.493Z,13.00
2023-01-13T03:19:01.382Z,18.40
2023-01-13T03:24:04.805Z,14.80
2023-01-13T03:26:38.119Z,20.40
2023-01-13T03:29:16.518Z,15.40
2023-01-13T03:31:48.895Z,15.40
2023-01-13T03:34:22.461Z,11.60
2023-01-13T03:36:55.305Z,14.90
2023-01-13T03:39:30.372Z,16.90
2023-01-13T03:42:02.509Z,15.60
2023-01-13T03:44:35.373Z,14.80
2023-01-13T03:47:10.803Z,14.90
2023-01-13T03:49:46.155Z,14.90
2023-01-13T03:52:18.507Z,16.10
2023-01-13T03:54:52.881Z,15.40
2023-01-13T03:57:25.098Z,14.30
2023-01-13T03:59:56.262Z,14.40
2023-01-13T04:02:35.021Z,17.30
2023-01-13T04:05:05.412Z,16.50
2023-01-13T04:07:42.169Z,13.30
2023-01-13T04:10:11.771Z,16.60
2023-01-13T04:13:00.794Z,14.50
2023-01-13T04:15:30.295Z,15.50
2023-01-13T04:18:02.731Z,18.40
2023-01-13T04:20:29.943Z,15.80
2023-01-13T04:22:57.099Z,13.10
2023-01-13T04:25:24.060Z,17.50
2023-01-13T04:27:51.345Z,17.00
2023-01-13T04:30:19.134Z,16.00
2023-01-13T04:32:46.112Z,15.80
2023-01-13T04:35:13.469Z,19.30
2023-01-13T04:37:40.464Z,11.80
2023-01-13T04:40:09.538Z,15.60
2023-01-13T04:42:37.066Z,17.10
2023-01-13T04:45:04.390Z,18.10
2023-01-13T04:47:31.314Z,14.10
2023-01-13T04:49:58.568Z,14.30
2023-01-13T04:52:25.946Z,13.90
2023-01-13T04:54:52.932Z,15.00
2023-01-13T04:57:20.170Z,16.10
2023-01-13T04:59:47.148Z,13.20
2023-01-13T05:02:19.887Z,13.10
2023-01-13T05:04:47.625Z,12.80
2023-01-13T05:07:14.910Z,12.10
2023-01-13T05:09:41.889Z,15.00
2023-01-13T05:12:27.860Z,12.80
2023-01-13T05:15:12.348Z,16.40
2023-01-13T05:17:39.819Z,16.70
2023-01-13T05:20:08.275Z,13.50
2023-01-13T05:22:53.449Z,12.70
2023-01-13T05:25:25.183Z,18.40
2023-01-13T05:27:53.606Z,13.40
2023-01-13T05:30:21.987Z,16.60
2023-01-13T05:32:49.097Z,19.00
2023-01-13T05:35:16.898Z,12.70
2023-01-13T05:37:44.173Z,15.10
2023-01-13T05:40:31.786Z,15.70
2023-01-13T05:43:24.761Z,13.30
2023-01-13T05:45:55.161Z,16.30
2023-01-13T05:48:25.497Z,20.70
2023-01-13T05:50:54.111Z,19.30
2023-01-13T05:53:21.199Z,14.20
2023-01-13T05:55:48.291Z,16.10
2023-01-13T05:58:17.109Z,15.00
2023-01-13T06:00:44.467Z,16.20
2023-01-13T06:03:11.929Z,13.70
2023-01-13T06:05:39.598Z,15.20
2023-01-13T06:08:08.696Z,16.20
2023-01-13T06:10:36.973Z,19.00
2023-01-13T06:13:04.260Z,18.30
2023-01-13T06:15:31.389Z,15.30
2023-01-13T06:17:58.629Z,14.50
2023-01-13T06:20:25.889Z,17.50
2023-01-13T06:22:55.479Z,19.70
2023-01-13T06:25:33.621Z,16.00
2023-01-13T06:28:02.066Z,15.80
2023-01-13T06:30:32.240Z,13.00
2023-01-13T06:33:03.225Z,14.90
2023-01-13T06:35:34.206Z,17.90
2023-01-13T06:38:04.769Z,16.80
2023-01-13T06:40:32.202Z,13.40
2023-01-13T06:43:18.919Z,15.20
2023-01-13T06:45:50.486Z,14.00
2023-01-13T06:48:18.954Z,13.60
2023-01-13T06:50:46.392Z,18.40
2023-01-13T06:53:13.498Z,14.60
2023-01-13T06:55:40.535Z,16.20
2023-01-13T06:58:07.769Z,13.60
2023-01-13T07:00:36.565Z,13.50
2023-01-13T07:03:14.755Z,10.80
2023-01-13T07:05:42.500Z,14.50
2023-01-13T07:08:10.906Z,14.30
2023-01-13T07:10:39.152Z,13.50
2023-01-13T07:13:25.023Z,9.70
2023-01-13T07:16:00.305Z,13.50
2023-01-13T07:18:28.694Z,12.10
2023-01-13T07:20:57.870Z,11.00
2023-01-13T07:23:25.661Z,12.00
2023-01-13T07:25:52.802Z,10.20
2023-01-13T07:28:20.040Z,13.80
2023-01-13T07:30:47.354Z,13.10
2023-01-13T07:33:14.442Z,17.80
2023-01-13T07:35:41.543Z,12.10
2023-01-13T07:38:08.790Z,11.80
2023-01-13T07:40:35.804Z,12.90
2023-01-13T07:43:20.554Z,12.00
2023-01-13T07:45:47.891Z,15.30
2023-01-13T07:48:16.505Z,12.50
2023-01-13T07:50:44.278Z,11.00
2023-01-13T07:53:11.471Z,12.60
2023-01-13T07:55:41.994Z,11.20
2023-01-13T07:58:09.492Z,13.90
2023-01-13T08:00:37.324Z,14.00
2023-01-13T08:03:04.484Z,14.90
2023-01-13T08:05:31.776Z,13.60
2023-01-13T08:07:58.851Z,14.10
2023-01-13T08:10:25.864Z,10.90
2023-01-13T08:13:10.922Z,11.70
2023-01-13T08:15:38.546Z,11.60
2023-01-13T08:18:05.818Z,15.00
2023-01-13T08:20:32.922Z,12.00
2023-01-13T08:23:01.250Z,14.90
2023-01-13T08:25:29.878Z,14.90
2023-01-13T08:28:00.233Z,12.60
2023-01-13T08:30:28.064Z,12.80
2023-01-13T08:32:55.329Z,14.50
2023-01-13T08:35:23.004Z,13.20
2023-01-13T08:37:51.148Z,15.00
2023-01-13T08:40:21.011Z,12.10
2023-01-13T08:42:48.801Z,11.00
2023-01-13T08:45:16.376Z,11.10
2023-01-13T08:47:43.520Z,13.50
2023-01-13T08:50:12.637Z,12.90
2023-01-13T08:52:39.717Z,13.60
2023-01-13T08:55:07.895Z,10.80
2023-01-13T08:57:35.645Z,14.40
2023-01-13T09:00:03.381Z,14.40
2023-01-13T09:02:31.312Z,10.40
2023-01-13T09:05:00.781Z,15.10
2023-01-13T09:07:28.064Z,11.10
2023-01-13T09:09:56.959Z,10.30
2023-01-13T09:12:41.771Z,10.40
2023-01-13T09:15:12.299Z,11.30
2023-01-13T09:17:39.404Z,9.90
2023-01-13T09:20:07.470Z,14.90
2023-01-13T09:22:37.722Z,8.30
2023-01-13T09:25:05.429Z,11.50
2023-01-13T09:27:32.746Z,11.40
2023-01-13T09:30:00.070Z,12.20
2023-01-13T09:32:27.509Z,10.80
2023-01-13T09:35:01.976Z,10.90
2023-01-13T09:37:31.344Z,10.80
2023-01-13T09:39:58.812Z,11.10
2023-01-13T09:42:54.723Z,9.70
2023-01-13T09:45:27.105Z,9.80
2023-01-13T09:48:01.081Z,10.80
2023-01-13T09:50:42.582Z,10.50
2023-01-13T09:53:15.828Z,9.10
2023-01-13T09:55:45.552Z,12.10
2023-01-13T09:58:18.409Z,8.90
2023-01-13T10:00:53.231Z,11.00
2023-01-13T10:03:27.459Z,14.60
2023-01-13T10:06:04.723Z,10.90
2023-01-13T10:08:34.940Z,12.90
2023-01-13T10:11:35.716Z,11.60
2023-01-13T10:14:43.523Z,13.60
2023-01-13T10:17:21.855Z,10.60
2023-01-13T10:19:54.319Z,11.40
2023-01-13T10:22:53.135Z,10.50
2023-01-13T10:25:29.404Z,8.50
2023-01-13T10:28:04.468Z,10.10
2023-01-13T10:30:39.043Z,7.30
2023-01-13T10:33:14.407Z,10.90
2023-01-13T10:36:00.687Z,8.70
2023-01-13T10:38:30.795Z,9.30
2023-01-13T10:41:00.780Z,10.90
2023-01-13T10:43:29.342Z,9.00
2023-01-13T10:46:05.344Z,8.60
2023-01-13T10:48:42.302Z,8.70
2023-01-13T10:53:54.911Z,10.70
2023-01-13T10:56:23.958Z,8.50
2023-01-13T10:58:51.319Z,9.20
2023-01-13T11:01:31.175Z,6.80
2023-01-13T11:04:07.928Z,8.70
2023-01-13T11:06:46.526Z,9.30
2023-01-13T11:09:24.910Z,12.80
2023-01-13T11:11:56.079Z,7.60
2023-01-13T11:14:39.576Z,10.30
2023-01-13T11:17:16.006Z,8.60
2023-01-13T11:19:49.266Z,8.70
2023-01-13T11:22:29.449Z,8.70
2023-01-13T11:25:00.115Z,6.80
2023-01-13T11:27:39.886Z,9.20
2023-01-13T11:30:22.287Z,10.60
2023-01-13T11:33:02.651Z,8.50
2023-01-13T11:35:32.914Z,10.20
2023-01-13T11:38:05.700Z,9.10
2023-01-13T11:40:38.682Z,7.40
2023-01-13T11:43:15.348Z,9.50
2023-01-13T11:45:46.749Z,11.20
2023-01-13T11:48:17.573Z,7.70
2023-01-13T11:50:53.046Z,9.30
2023-01-13T11:53:35.362Z,10.40
2023-01-13T11:56:24.500Z,10.50
2023-01-13T11:59:18.822Z,10.60
2023-01-13T12:02:05.369Z,10.20
2023-01-13T12:04:42.613Z,8.70
2023-01-13T12:07:23.169Z,12.00
2023-01-13T12:10:07.696Z,9.80
2023-01-13T12:12:52.332Z,9.90
2023-01-13T12:15:57.527Z,9.30
2023-01-13T12:18:43.162Z,9.90
2023-01-13T12:21:22.199Z,12.00
2023-01-13T12:23:59.540Z,9.30
2023-01-13T12:26:30.005Z,9.90
2023-01-13T12:29:02.631Z,9.20
2023-01-13T12:31:31.204Z,12.30
2023-01-13T12:34:24.521Z,6.70
2023-01-13T12:36:59.924Z,9.90
2023-01-13T12:39:38.682Z,8.80
2023-01-13T12:42:30.205Z,8.90
2023-01-13T12:45:30.376Z,12.10
2023-01-13T12:47:58.920Z,8.30
2023-01-13T12:50:43.804Z,10.60
2023-01-13T12:53:38.165Z,10.20
2023-01-13T12:56:24.138Z,8.60
2023-01-13T12:58:51.849Z,9.80
2023-01-13T13:01:19.465Z,10.30
2023-01-13T13:04:11.147Z,10.60
2023-01-13T13:06:42.762Z,10.40
2023-01-13T13:09:23.994Z,9.00
2023-01-13T13:12:20.894Z,11.40
2023-01-13T13:15:05.335Z,11.80
2023-01-13T13:18:08.806Z,10.40
2023-01-13T13:20:57.850Z,11.60
2023-01-13T13:23:44.408Z,8.00
2023-01-13T13:26:25.243Z,7.30
2023-01-13T13:29:15.595Z,9.70
2023-01-13T13:32:03.603Z,11.20
2023-01-13T13:34:39.585Z,10.30
2023-01-13T13:37:25.943Z,8.90
2023-01-13T13:40:11.249Z,9.30
2023-01-13T13:43:01.618Z,8.60
2023-01-13T13:45:56.002Z,10.00
2023-01-13T13:48:27.403Z,13.10
2023-01-13T13:50:58.312Z,12.50
2023-01-13T13:53:28.147Z,9.00
2023-01-13T13:56:01.041Z,8.40
2023-01-13T13:58:30.242Z,9.00
2023-01-13T14:00:58.213Z,10.10
2023-01-13T14:03:30.585Z,10.10
2023-01-13T14:05:59.895Z,9.50
2023-01-13T14:08:29.365Z,12.50
2023-01-13T14:10:56.751Z,11.50
2023-01-13T14:13:26.392Z,10.40
2023-01-13T14:15:59.996Z,8.10
2023-01-13T14:18:29.085Z,12.20
2023-01-13T14:20:59.722Z,11.30
2023-01-13T14:23:29.943Z,9.60
2023-01-13T14:26:02.564Z,11.30
2023-01-13T14:28:33.103Z,9.90
2023-01-13T14:31:01.305Z,14.30
2023-01-13T14:33:38.831Z,7.60
2023-01-13T14:36:18.340Z,10.10
2023-01-13T14:38:47.749Z,8.10
2023-01-13T14:41:27.077Z,13.00
2023-01-13T14:43:57.369Z,11.00
2023-01-13T14:46:25.664Z,13.30
2023-01-13T14:48:55.654Z,11.80
2023-01-13T14:51:29.231Z,10.60
2023-01-13T14:53:57.505Z,13.40
2023-01-13T14:56:51.342Z,11.40
2023-01-13T14:59:45.001Z,11.00
2023-01-13T15:02:45.576Z,10.60
2023-01-13T15:05:43.772Z,13.10
2023-01-13T15:08:36.161Z,11.80
2023-01-13T15:11:05.913Z,9.30
2023-01-13T15:13:44.981Z,10.20
2023-01-13T15:16:26.056Z,10.50
2023-01-13T15:18:54.171Z,10.50
2023-01-13T15:21:23.185Z,12.60
2023-01-13T15:23:50.421Z,12.80
2023-01-13T15:26:22.368Z,9.20
2023-01-13T15:28:50.364Z,9.60
2023-01-13T15:31:17.915Z,9.70
2023-01-13T15:33:45.152Z,9.70
2023-01-13T15:36:23.931Z,9.20
2023-01-13T15:38:51.306Z,11.30
2023-01-13T15:41:38.920Z,13.90
2023-01-13T15:44:32.464Z,12.50
2023-01-13T15:47:03.132Z,12.90
2023-01-13T15:49:35.338Z,12.60
2023-01-13T15:52:03.169Z,14.70
2023-01-13T15:54:30.865Z,13.10
2023-01-13T15:56:58.098Z,12.30
2023-01-13T15:59:28.479Z,11.80
2023-01-13T16:01:55.600Z,12.70
2023-01-13T16:04:22.879Z,14.80
2023-01-13T16:06:50.113Z,12.20
2023-01-13T16:09:17.993Z,12.20
2023-01-13T16:11:45.251Z,12.10
2023-01-13T16:14:12.323Z,12.50
2023-01-13T16:16:39.555Z,12.20
2023-01-13T16:19:06.816Z,12.00
2023-01-13T16:21:33.936Z,14.20
2023-01-13T16:24:01.401Z,12.60
2023-01-13T16:26:30.609Z,11.30
2023-01-13T16:28:59.273Z,14.20
2023-01-13T16:31:32.194Z,10.80
2023-01-13T16:34:00.169Z,14.20
2023-01-13T16:36:27.912Z,11.60
2023-01-13T16:38:55.444Z,12.70
2023-01-13T16:41:24.930Z,11.60
2023-01-13T16:43:52.343Z,13.00
2023-01-13T16:46:26.773Z,13.30
2023-01-13T16:48:55.136Z,14.00
2023-01-13T16:51:23.308Z,12.70
2023-01-13T16:53:51.483Z,13.60
2023-01-13T16:56:24.789Z,12.40
2023-01-13T16:58:53.173Z,13.70
2023-01-13T17:01:25.839Z,12.40
2023-01-13T17:03:53.904Z,10.80
2023-01-13T17:06:25.411Z,10.30
2023-01-13T17:08:53.878Z,9.60
2023-01-13T17:11:21.653Z,10.40
2023-01-13T17:13:48.875Z,12.80
2023-01-13T17:16:22.668Z,10.70
2023-01-13T17:18:50.547Z,10.80
2023-01-13T17:21:18.037Z,12.00
2023-01-13T17:23:45.358Z,11.30
2023-01-13T17:26:26.011Z,10.60
2023-01-13T17:28:53.079Z,11.00
2023-01-13T17:31:20.459Z,10.80
2023-01-13T17:33:47.679Z,12.90
2023-01-13T17:36:14.946Z,11.00
2023-01-13T17:38:43.199Z,9.40
2023-01-13T17:41:10.196Z,9.00
2023-01-13T17:43:37.469Z,9.70
2023-01-13T17:46:08.084Z,9.80
2023-01-13T17:48:35.377Z,10.00
2023-01-13T17:51:03.658Z,8.40
2023-01-13T17:53:31.223Z,11.00
2023-01-13T17:55:58.479Z,11.70
2023-01-13T17:58:25.509Z,14.20
2023-01-13T18:00:53.145Z,10.60
2023-01-13T18:03:21.116Z,11.80
2023-01-13T18:05:48.222Z,10.30
2023-01-13T18:08:16.090Z,11.00
2023-01-13T18:10:43.196Z,9.90
2023-01-13T18:13:10.713Z,12.40
2023-01-13T18:15:38.285Z,9.20
2023-01-13T18:18:05.470Z,14.10
2023-01-13T18:20:50.183Z,11.00
2023-01-13T18:23:38.713Z,11.90
2023-01-13T18:26:34.676Z,15.60
2023-01-13T18:29:03.026Z,13.50
2023-01-13T18:31:29.998Z,13.50
2023-01-13T18:33:57.340Z,12.20
2023-01-13T18:36:24.845Z,12.60
2023-01-13T18:38:53.195Z,15.10
2023-01-13T18:41:38.267Z,13.70
2023-01-13T18:44:05.969Z,10.90
2023-01-13T18:46:33.030Z,10.80
2023-01-13T18:49:00.101Z,12.70
2023-01-13T18:51:27.390Z,13.80
2023-01-13T18:53:54.871Z,11.30
2023-01-13T18:56:22.320Z,13.40
2023-01-13T18:58:51.984Z,16.50
2023-01-13T19:01:22.650Z,13.10
2023-01-13T19:03:50.315Z,18.00
2023-01-13T19:06:17.323Z,12.90
2023-01-13T19:08:44.577Z,15.30
2023-01-13T19:11:11.670Z,13.30
2023-01-13T19:13:39.672Z,15.20
2023-01-13T19:16:09.262Z,13.70
2023-01-13T19:18:37.238Z,13.00
2023-01-13T19:21:08.290Z,15.10
2023-01-13T19:23:35.885Z,13.90
2023-01-13T19:26:04.421Z,15.60
2023-01-13T19:28:31.809Z,13.90
2023-01-13T19:31:02.834Z,10.70
2023-01-13T19:33:32.777Z,14.40
2023-01-13T19:36:01.167Z,12.70
2023-01-13T19:38:29.456Z,11.00
2023-01-13T19:40:58.083Z,11.60
2023-01-13T19:43:43.900Z,13.30
2023-01-13T19:46:12.170Z,12.80
2023-01-13T19:48:39.790Z,11.40
2023-01-13T19:51:07.864Z,12.90
2023-01-13T19:53:34.920Z,11.10
2023-01-13T19:56:02.406Z,12.60
2023-01-13T19:58:29.999Z,12.70
2023-01-13T20:00:57.089Z,13.90
2023-01-13T20:03:26.171Z,10.80
2023-01-13T20:05:53.746Z,12.20
2023-01-13T20:08:22.212Z,9.60
2023-01-13T20:10:50.532Z,9.80
2023-01-13T20:13:18.486Z,11.80
2023-01-13T20:15:45.662Z,10.50
2023-01-13T20:18:13.226Z,8.60
2023-01-13T20:20:40.483Z,11.90
2023-01-13T20:23:07.579Z,9.50
2023-01-13T20:25:34.787Z,11.30
2023-01-13T20:28:02.440Z,10.10
2023-01-13T20:30:29.423Z,10.50
2023-01-13T20:32:56.720Z,9.70
2023-01-13T20:35:24.428Z,14.70
2023-01-13T20:37:51.527Z,11.50
2023-01-13T20:40:18.654Z,10.00
2023-01-13T20:42:49.161Z,9.80
2023-01-13T20:45:20.894Z,15.20
2023-01-13T20:47:48.839Z,11.10
2023-01-13T20:50:16.852Z,8.70
2023-01-13T20:52:44.025Z,10.30
2023-01-13T20:55:12.612Z,10.40
2023-01-13T20:57:40.174Z,8.50
2023-01-13T21:00:10.422Z,9.20
2023-01-13T21:02:39.645Z,10.70
2023-01-13T21:05:07.871Z,12.00
2023-01-13T21:07:35.152Z,12.30
2023-01-13T21:10:02.355Z,11.60
2023-01-13T21:12:46.960Z,12.30
2023-01-13T21:15:22.221Z,12.10
2023-01-13T21:18:08.808Z,10.90
2023-01-13T21:20:39.523Z,12.50
2023-01-13T21:23:07.817Z,11.40
2023-01-13T21:25:37.357Z,11.00
2023-01-13T21:28:06.413Z,13.30
2023-01-13T21:30:33.626Z,11.90
2023-01-13T21:33:01.054Z,11.30
2023-01-13T21:35:29.224Z,11.80
2023-01-13T21:37:59.287Z,10.80
2023-01-13T21:40:26.421Z,10.80
2023-01-13T21:43:11.101Z,11.20
2023-01-13T21:45:59.051Z,10.80
2023-01-13T21:48:26.297Z,13.90
2023-01-13T21:50:53.567Z,10.60
2023-01-13T21:53:20.564Z,13.00
2023-01-13T21:55:51.537Z,12.20
2023-01-13T21:58:18.908Z,11.90
2023-01-13T22:00:49.100Z,10.70
2023-01-13T22:03:18.581Z,13.10
2023-01-13T22:05:46.314Z,10.80
2023-01-13T22:08:15.201Z,12.20
2023-01-13T22:10:57.426Z,10.70
2023-01-13T22:13:42.544Z,9.40
2023-01-13T22:16:10.299Z,11.00
2023-01-13T22:18:38.001Z,12.80
2023-01-13T22:21:05.199Z,11.60
2023-01-13T22:23:32.470Z,10.50
2023-01-13T22:26:05.481Z,11.20
2023-01-13T22:28:34.524Z,10.50
2023-01-13T22:31:01.547Z,12.30
2023-01-13T22:33:28.715Z,11.20
2023-01-13T22:35:58.836Z,9.90
2023-01-13T22:38:25.828Z,14.60
2023-01-13T22:41:00.058Z,10.00
2023-01-13T22:43:27.853Z,12.30
2023-01-13T22:46:01.464Z,12.90
2023-01-13T22:48:28.969Z,16.40
2023-01-13T22:50:56.447Z,12.30
2023-01-13T22:53:23.921Z,15.90
2023-01-13T22:55:57.744Z,12.60
2023-01-13T22:58:25.355Z,11.10
2023-01-13T23:00:52.692Z,12.20
2023-01-13T23:03:20.474Z,13.30
2023-01-13T23:05:48.264Z,13.70
2023-01-13T23:08:15.842Z,11.10
2023-01-13T23:10:43.219Z,12.60
2023-01-13T23:13:11.411Z,12.50
2023-01-13T23:15:38.498Z,13.60
2023-01-13T23:18:05.751Z,10.70
2023-01-13T23:20:33.098Z,11.70
2023-01-13T23:23:00.196Z,10.80
2023-01-13T23:25:27.289Z,13.90
2023-01-13T23:27:55.742Z,10.90
2023-01-13T23:30:23.454Z,11.20
2023-01-13T23:32:50.495Z,10.70
2023-01-13T23:35:18.488Z,13.40
2023-01-13T23:37:45.761Z,10.50
2023-01-13T23:40:15.187Z,13.90
2023-01-13T23:42:42.274Z,11.70
2023-01-13T23:45:12.572Z,15.00
2023-01-13T23:47:41.236Z,10.90
2023-01-13T23:50:09.565Z,13.00
2023-01-13T23:52:36.600Z,10.60
2023-01-13T23:55:03.530Z,12.90
2023-01-13T23:57:30.662Z,10.10
2023-01-13T23:59:57.589Z,13.20
